sensor_id;sensor_type;location;lat;lon;timestamp;P1;durP1;ratioP1;P2;durP2;ratioP2
20988;SDS011;10653;47.052;15.410;2022-12-18T00:01:21;43.60;;;30.40;;
20988;SDS011;10653;47.052;15.410;2022-12-18T00:03:47;41.00;;;28.85;;
20988;SDS011;10653;47.052;15.410;2022-12-18T00:06:14;38.33;;;27.70;;
20988;SDS011;10653;47.052;15.410;2022-12-18T00:08:44;38.42;;;28.83;;
20988;SDS011;10653;47.052;15.410;2022-12-18T00:11:11;38.80;;;29.40;;
20988;SDS011;10653;47.052;15.410;2022-12-18T00:13:37;42.00;;;28.67;;
20988;SDS011;10653;47.052;15.410;2022-12-18T00:16:04;39.05;;;27.48;;
20988;SDS011;10653;47.052;15.410;2022-12-18T00:18:30;38.83;;;28.48;;
20988;SDS011;10653;47.052;15.410;2022-12-18T00:21:00;32.97;;;25.58;;
20988;SDS011;10653;47.052;15.410;2022-12-18T00:23:27;39.30;;;26.77;;
20988;SDS011;10653;47.052;15.410;2022-12-18T00:25:53;41.63;;;27.10;;
20988;SDS011;10653;47.052;15.410;2022-12-18T00:28:19;37.65;;;26.05;;
20988;SDS011;10653;47.052;15.410;2022-12-18T00:30:45;33.50;;;25.17;;
20988;SDS011;10653;47.052;15.410;2022-12-18T00:33:11;39.35;;;25.30;;
20988;SDS011;10653;47.052;15.410;2022-12-18T00:35:37;34.92;;;24.92;;
20988;SDS011;10653;47.052;15.410;2022-12-18T00:38:03;39.78;;;27.85;;
20988;SDS011;10653;47.052;15.410;2022-12-18T00:40:31;36.42;;;26.70;;
20988;SDS011;10653;47.052;15.410;2022-12-18T00:42:57;34.60;;;25.85;;
20988;SDS011;10653;47.052;15.410;2022-12-18T00:45:23;41.78;;;29.00;;
20988;SDS011;10653;47.052;15.410;2022-12-18T00:47:50;37.38;;;27.73;;
20988;SDS011;10653;47.052;15.410;2022-12-18T00:50:16;36.08;;;25.67;;
20988;SDS011;10653;47.052;15.410;2022-12-18T00:52:42;33.28;;;24.27;;
20988;SDS011;10653;47.052;15.410;2022-12-18T00:55:08;37.45;;;27.67;;
20988;SDS011;10653;47.052;15.410;2022-12-18T00:57:34;35.10;;;25.45;;
20988;SDS011;10653;47.052;15.410;2022-12-18T01:00:01;34.95;;;23.73;;
20988;SDS011;10653;47.052;15.410;2022-12-18T01:02:27;34.55;;;24.05;;
20988;SDS011;10653;47.052;15.410;2022-12-18T01:04:53;32.25;;;22.67;;
20988;SDS011;10653;47.052;15.410;2022-12-18T01:07:19;32.88;;;23.02;;
20988;SDS011;10653;47.052;15.410;2022-12-18T01:09:45;29.98;;;21.95;;
20988;SDS011;10653;47.052;15.410;2022-12-18T01:12:11;35.77;;;25.33;;
20988;SDS011;10653;47.052;15.410;2022-12-18T01:14:37;36.10;;;24.60;;
20988;SDS011;10653;47.052;15.410;2022-12-18T01:17:03;35.40;;;23.83;;
20988;SDS011;10653;47.052;15.410;2022-12-18T01:19:29;32.88;;;23.52;;
20988;SDS011;10653;47.052;15.410;2022-12-18T01:21:55;29.80;;;20.23;;
20988;SDS011;10653;47.052;15.410;2022-12-18T01:24:21;34.50;;;22.88;;
20988;SDS011;10653;47.052;15.410;2022-12-18T01:26:47;29.20;;;20.58;;
20988;SDS011;10653;47.052;15.410;2022-12-18T01:29:13;30.80;;;21.67;;
20988;SDS011;10653;47.052;15.410;2022-12-18T01:31:39;32.92;;;23.42;;
20988;SDS011;10653;47.052;15.410;2022-12-18T01:34:05;29.53;;;23.33;;
20988;SDS011;10653;47.052;15.410;2022-12-18T01:36:34;30.47;;;21.73;;
20988;SDS011;10653;47.052;15.410;2022-12-18T01:39:03;32.38;;;23.42;;
20988;SDS011;10653;47.052;15.410;2022-12-18T01:41:29;37.20;;;25.13;;
20988;SDS011;10653;47.052;15.410;2022-12-18T01:47:00;32.20;;;23.08;;
20988;SDS011;10653;47.052;15.410;2022-12-18T01:49:26;44.67;;;25.13;;
20988;SDS011;10653;47.052;15.410;2022-12-18T01:51:52;50.53;;;25.60;;
20988;SDS011;10653;47.052;15.410;2022-12-18T01:54:18;38.42;;;23.20;;
20988;SDS011;10653;47.052;15.410;2022-12-18T01:56:44;39.35;;;24.52;;
20988;SDS011;10653;47.052;15.410;2022-12-18T01:59:11;32.35;;;23.45;;
20988;SDS011;10653;47.052;15.410;2022-12-18T02:01:39;38.08;;;24.25;;
20988;SDS011;10653;47.052;15.410;2022-12-18T02:04:18;42.85;;;25.52;;
20988;SDS011;10653;47.052;15.410;2022-12-18T02:06:45;36.10;;;24.25;;
20988;SDS011;10653;47.052;15.410;2022-12-18T02:09:17;38.95;;;25.05;;
20988;SDS011;10653;47.052;15.410;2022-12-18T02:11:50;40.13;;;25.63;;
20988;SDS011;10653;47.052;15.410;2022-12-18T02:16:52;32.80;;;22.08;;
20988;SDS011;10653;47.052;15.410;2022-12-18T02:24:43;35.58;;;23.63;;
20988;SDS011;10653;47.052;15.410;2022-12-18T02:27:11;42.67;;;22.80;;
20988;SDS011;10653;47.052;15.410;2022-12-18T02:29:39;42.60;;;25.20;;
20988;SDS011;10653;47.052;15.410;2022-12-18T02:32:07;30.23;;;21.83;;
20988;SDS011;10653;47.052;15.410;2022-12-18T02:34:36;28.17;;;19.88;;
20988;SDS011;10653;47.052;15.410;2022-12-18T02:37:03;45.38;;;22.63;;
20988;SDS011;10653;47.052;15.410;2022-12-18T02:39:30;27.98;;;20.92;;
20988;SDS011;10653;47.052;15.410;2022-12-18T02:41:58;35.65;;;20.60;;
20988;SDS011;10653;47.052;15.410;2022-12-18T02:44:26;28.63;;;20.42;;
20988;SDS011;10653;47.052;15.410;2022-12-18T02:46:52;24.57;;;18.80;;
20988;SDS011;10653;47.052;15.410;2022-12-18T02:49:26;26.85;;;20.35;;
20988;SDS011;10653;47.052;15.410;2022-12-18T02:51:56;27.95;;;20.30;;
20988;SDS011;10653;47.052;15.410;2022-12-18T02:54:37;30.05;;;22.00;;
20988;SDS011;10653;47.052;15.410;2022-12-18T02:59:47;29.50;;;20.77;;
20988;SDS011;10653;47.052;15.410;2022-12-18T03:05:14;35.75;;;22.35;;
20988;SDS011;10653;47.052;15.410;2022-12-18T03:07:44;37.22;;;22.38;;
20988;SDS011;10653;47.052;15.410;2022-12-18T03:10:14;30.52;;;20.83;;
20988;SDS011;10653;47.052;15.410;2022-12-18T03:12:43;49.08;;;22.02;;
20988;SDS011;10653;47.052;15.410;2022-12-18T03:15:21;32.05;;;19.40;;
20988;SDS011;10653;47.052;15.410;2022-12-18T03:17:50;27.55;;;19.15;;
20988;SDS011;10653;47.052;15.410;2022-12-18T03:20:18;24.88;;;18.98;;
20988;SDS011;10653;47.052;15.410;2022-12-18T03:22:46;29.33;;;20.73;;
20988;SDS011;10653;47.052;15.410;2022-12-18T03:25:13;29.10;;;19.02;;
20988;SDS011;10653;47.052;15.410;2022-12-18T03:27:42;31.77;;;20.48;;
20988;SDS011;10653;47.052;15.410;2022-12-18T03:30:09;22.40;;;17.42;;
20988;SDS011;10653;47.052;15.410;2022-12-18T03:35:22;22.90;;;19.00;;
20988;SDS011;10653;47.052;15.410;2022-12-18T03:37:49;23.75;;;19.58;;
20988;SDS011;10653;47.052;15.410;2022-12-18T03:40:16;25.92;;;19.85;;
20988;SDS011;10653;47.052;15.410;2022-12-18T03:42:51;26.40;;;20.58;;
20988;SDS011;10653;47.052;15.410;2022-12-18T03:45:21;25.77;;;19.38;;
20988;SDS011;10653;47.052;15.410;2022-12-18T03:55:18;25.27;;;18.80;;
20988;SDS011;10653;47.052;15.410;2022-12-18T03:57:45;21.67;;;18.17;;
20988;SDS011;10653;47.052;15.410;2022-12-18T04:00:12;24.10;;;17.63;;
20988;SDS011;10653;47.052;15.410;2022-12-18T04:02:40;22.05;;;18.15;;
20988;SDS011;10653;47.052;15.410;2022-12-18T04:05:08;23.75;;;19.33;;
20988;SDS011;10653;47.052;15.410;2022-12-18T04:07:35;22.08;;;18.58;;
20988;SDS011;10653;47.052;15.410;2022-12-18T04:10:02;24.45;;;18.30;;
20988;SDS011;10653;47.052;15.410;2022-12-18T04:12:29;22.88;;;18.98;;
20988;SDS011;10653;47.052;15.410;2022-12-18T04:14:55;22.90;;;18.50;;
20988;SDS011;10653;47.052;15.410;2022-12-18T04:17:21;25.27;;;19.67;;
20988;SDS011;10653;47.052;15.410;2022-12-18T04:19:47;23.13;;;17.67;;
20988;SDS011;10653;47.052;15.410;2022-12-18T04:22:13;24.15;;;18.05;;
20988;SDS011;10653;47.052;15.410;2022-12-18T04:24:39;22.60;;;17.58;;
20988;SDS011;10653;47.052;15.410;2022-12-18T04:27:06;21.73;;;17.33;;
20988;SDS011;10653;47.052;15.410;2022-12-18T04:29:33;23.10;;;18.50;;
20988;SDS011;10653;47.052;15.410;2022-12-18T04:31:59;20.20;;;17.17;;
20988;SDS011;10653;47.052;15.410;2022-12-18T04:34:25;26.02;;;16.85;;
20988;SDS011;10653;47.052;15.410;2022-12-18T04:36:51;25.73;;;19.98;;
20988;SDS011;10653;47.052;15.410;2022-12-18T04:39:17;24.42;;;17.63;;
20988;SDS011;10653;47.052;15.410;2022-12-18T04:41:43;21.05;;;17.67;;
20988;SDS011;10653;47.052;15.410;2022-12-18T04:44:09;23.45;;;18.33;;
20988;SDS011;10653;47.052;15.410;2022-12-18T04:46:35;27.67;;;19.92;;
20988;SDS011;10653;47.052;15.410;2022-12-18T04:49:01;26.42;;;20.50;;
20988;SDS011;10653;47.052;15.410;2022-12-18T04:51:27;25.77;;;19.70;;
20988;SDS011;10653;47.052;15.410;2022-12-18T04:53:53;27.05;;;19.48;;
20988;SDS011;10653;47.052;15.410;2022-12-18T04:56:19;25.05;;;19.52;;
20988;SDS011;10653;47.052;15.410;2022-12-18T04:58:45;25.50;;;19.70;;
20988;SDS011;10653;47.052;15.410;2022-12-18T05:01:12;25.50;;;19.45;;
20988;SDS011;10653;47.052;15.410;2022-12-18T05:03:38;21.70;;;18.35;;
20988;SDS011;10653;47.052;15.410;2022-12-18T05:06:05;27.38;;;20.55;;
20988;SDS011;10653;47.052;15.410;2022-12-18T05:08:31;25.65;;;19.77;;
20988;SDS011;10653;47.052;15.410;2022-12-18T05:11:01;25.65;;;19.95;;
20988;SDS011;10653;47.052;15.410;2022-12-18T05:13:27;25.27;;;19.95;;
20988;SDS011;10653;47.052;15.410;2022-12-18T05:15:54;23.02;;;18.50;;
20988;SDS011;10653;47.052;15.410;2022-12-18T05:18:20;25.35;;;19.25;;
20988;SDS011;10653;47.052;15.410;2022-12-18T05:20:46;24.92;;;18.40;;
20988;SDS011;10653;47.052;15.410;2022-12-18T05:23:12;23.30;;;18.45;;
20988;SDS011;10653;47.052;15.410;2022-12-18T05:25:38;23.60;;;18.98;;
20988;SDS011;10653;47.052;15.410;2022-12-18T05:28:04;24.83;;;19.10;;
20988;SDS011;10653;47.052;15.410;2022-12-18T05:30:30;25.25;;;20.88;;
20988;SDS011;10653;47.052;15.410;2022-12-18T05:32:56;24.07;;;19.67;;
20988;SDS011;10653;47.052;15.410;2022-12-18T05:35:22;22.90;;;18.17;;
20988;SDS011;10653;47.052;15.410;2022-12-18T05:37:48;24.40;;;20.58;;
20988;SDS011;10653;47.052;15.410;2022-12-18T05:40:14;26.80;;;19.95;;
20988;SDS011;10653;47.052;15.410;2022-12-18T05:42:40;24.98;;;18.67;;
20988;SDS011;10653;47.052;15.410;2022-12-18T05:45:06;21.73;;;18.08;;
20988;SDS011;10653;47.052;15.410;2022-12-18T05:47:33;24.48;;;17.70;;
20988;SDS011;10653;47.052;15.410;2022-12-18T05:49:59;24.00;;;18.42;;
20988;SDS011;10653;47.052;15.410;2022-12-18T05:52:25;23.38;;;17.80;;
20988;SDS011;10653;47.052;15.410;2022-12-18T05:54:51;28.35;;;20.25;;
20988;SDS011;10653;47.052;15.410;2022-12-18T05:57:17;25.60;;;19.25;;
20988;SDS011;10653;47.052;15.410;2022-12-18T05:59:43;23.83;;;19.52;;
20988;SDS011;10653;47.052;15.410;2022-12-18T06:02:09;23.10;;;18.02;;
20988;SDS011;10653;47.052;15.410;2022-12-18T06:04:35;25.15;;;19.70;;
20988;SDS011;10653;47.052;15.410;2022-12-18T06:07:01;25.45;;;19.77;;
20988;SDS011;10653;47.052;15.410;2022-12-18T06:09:28;26.58;;;19.77;;
20988;SDS011;10653;47.052;15.410;2022-12-18T06:11:54;24.38;;;18.42;;
20988;SDS011;10653;47.052;15.410;2022-12-18T06:14:20;24.40;;;19.42;;
20988;SDS011;10653;47.052;15.410;2022-12-18T06:16:46;22.00;;;17.83;;
20988;SDS011;10653;47.052;15.410;2022-12-18T06:19:15;27.40;;;21.63;;
20988;SDS011;10653;47.052;15.410;2022-12-18T06:21:41;34.35;;;27.08;;
20988;SDS011;10653;47.052;15.410;2022-12-18T06:24:08;35.13;;;24.83;;
20988;SDS011;10653;47.052;15.410;2022-12-18T06:26:34;28.55;;;23.67;;
20988;SDS011;10653;47.052;15.410;2022-12-18T06:29:02;27.20;;;21.30;;
20988;SDS011;10653;47.052;15.410;2022-12-18T06:31:28;24.17;;;18.48;;
20988;SDS011;10653;47.052;15.410;2022-12-18T06:33:54;24.20;;;20.60;;
20988;SDS011;10653;47.052;15.410;2022-12-18T06:36:20;23.60;;;19.13;;
20988;SDS011;10653;47.052;15.410;2022-12-18T06:38:46;23.85;;;18.70;;
20988;SDS011;10653;47.052;15.410;2022-12-18T06:41:13;26.75;;;20.75;;
20988;SDS011;10653;47.052;15.410;2022-12-18T06:43:39;32.30;;;23.60;;
20988;SDS011;10653;47.052;15.410;2022-12-18T06:46:05;31.20;;;22.67;;
20988;SDS011;10653;47.052;15.410;2022-12-18T06:48:32;32.42;;;22.05;;
20988;SDS011;10653;47.052;15.410;2022-12-18T06:50:58;36.30;;;23.65;;
20988;SDS011;10653;47.052;15.410;2022-12-18T06:53:24;34.50;;;23.05;;
20988;SDS011;10653;47.052;15.410;2022-12-18T06:55:51;28.40;;;20.40;;
20988;SDS011;10653;47.052;15.410;2022-12-18T06:58:17;24.45;;;18.88;;
20988;SDS011;10653;47.052;15.410;2022-12-18T07:00:43;28.08;;;22.35;;
20988;SDS011;10653;47.052;15.410;2022-12-18T07:03:09;28.80;;;21.50;;
20988;SDS011;10653;47.052;15.410;2022-12-18T07:05:39;23.95;;;19.02;;
20988;SDS011;10653;47.052;15.410;2022-12-18T07:08:05;25.52;;;20.88;;
20988;SDS011;10653;47.052;15.410;2022-12-18T07:10:32;20.95;;;18.75;;
20988;SDS011;10653;47.052;15.410;2022-12-18T07:12:58;21.77;;;17.65;;
20988;SDS011;10653;47.052;15.410;2022-12-18T07:15:24;24.30;;;17.65;;
20988;SDS011;10653;47.052;15.410;2022-12-18T07:17:49;19.25;;;16.10;;
20988;SDS011;10653;47.052;15.410;2022-12-18T07:20:16;17.38;;;14.75;;
20988;SDS011;10653;47.052;15.410;2022-12-18T07:22:42;21.20;;;15.50;;
20988;SDS011;10653;47.052;15.410;2022-12-18T07:25:08;17.13;;;15.30;;
20988;SDS011;10653;47.052;15.410;2022-12-18T07:27:34;19.42;;;16.65;;
20988;SDS011;10653;47.052;15.410;2022-12-18T07:30:00;16.73;;;14.15;;
20988;SDS011;10653;47.052;15.410;2022-12-18T07:32:26;15.85;;;14.15;;
20988;SDS011;10653;47.052;15.410;2022-12-18T07:34:52;17.02;;;11.80;;
20988;SDS011;10653;47.052;15.410;2022-12-18T07:37:18;15.38;;;11.82;;
20988;SDS011;10653;47.052;15.410;2022-12-18T07:39:44;14.70;;;12.60;;
20988;SDS011;10653;47.052;15.410;2022-12-18T07:42:10;14.73;;;12.30;;
20988;SDS011;10653;47.052;15.410;2022-12-18T07:44:55;16.50;;;11.75;;
20988;SDS011;10653;47.052;15.410;2022-12-18T07:47:21;19.17;;;12.90;;
20988;SDS011;10653;47.052;15.410;2022-12-18T07:49:47;13.55;;;11.60;;
20988;SDS011;10653;47.052;15.410;2022-12-18T07:52:13;16.73;;;13.60;;
20988;SDS011;10653;47.052;15.410;2022-12-18T07:54:39;17.15;;;13.55;;
20988;SDS011;10653;47.052;15.410;2022-12-18T07:57:06;14.93;;;12.35;;
20988;SDS011;10653;47.052;15.410;2022-12-18T07:59:31;12.60;;;11.30;;
20988;SDS011;10653;47.052;15.410;2022-12-18T08:01:57;14.13;;;12.43;;
20988;SDS011;10653;47.052;15.410;2022-12-18T08:04:24;17.58;;;13.70;;
20988;SDS011;10653;47.052;15.410;2022-12-18T08:06:50;13.90;;;12.02;;
20988;SDS011;10653;47.052;15.410;2022-12-18T08:09:16;17.38;;;12.85;;
20988;SDS011;10653;47.052;15.410;2022-12-18T08:11:42;14.88;;;12.38;;
20988;SDS011;10653;47.052;15.410;2022-12-18T08:14:08;16.35;;;13.70;;
20988;SDS011;10653;47.052;15.410;2022-12-18T08:16:34;15.07;;;13.35;;
20988;SDS011;10653;47.052;15.410;2022-12-18T08:19:00;16.23;;;13.05;;
20988;SDS011;10653;47.052;15.410;2022-12-18T08:21:27;16.90;;;13.13;;
20988;SDS011;10653;47.052;15.410;2022-12-18T08:23:54;15.75;;;13.00;;
20988;SDS011;10653;47.052;15.410;2022-12-18T08:26:21;13.50;;;11.85;;
20988;SDS011;10653;47.052;15.410;2022-12-18T08:28:48;14.68;;;12.30;;
20988;SDS011;10653;47.052;15.410;2022-12-18T08:31:14;16.70;;;13.55;;
20988;SDS011;10653;47.052;15.410;2022-12-18T08:33:41;16.48;;;13.63;;
20988;SDS011;10653;47.052;15.410;2022-12-18T08:36:07;14.90;;;13.40;;
20988;SDS011;10653;47.052;15.410;2022-12-18T08:38:34;14.25;;;12.85;;
20988;SDS011;10653;47.052;15.410;2022-12-18T08:41:00;19.05;;;13.80;;
20988;SDS011;10653;47.052;15.410;2022-12-18T08:43:26;17.45;;;13.85;;
20988;SDS011;10653;47.052;15.410;2022-12-18T08:46:11;18.55;;;12.95;;
20988;SDS011;10653;47.052;15.410;2022-12-18T08:48:37;21.17;;;14.90;;
20988;SDS011;10653;47.052;15.410;2022-12-18T08:51:03;20.40;;;16.65;;
20988;SDS011;10653;47.052;15.410;2022-12-18T08:53:29;17.95;;;15.13;;
20988;SDS011;10653;47.052;15.410;2022-12-18T08:55:56;18.60;;;14.65;;
20988;SDS011;10653;47.052;15.410;2022-12-18T08:58:22;20.95;;;15.98;;
20988;SDS011;10653;47.052;15.410;2022-12-18T09:00:48;20.65;;;15.65;;
20988;SDS011;10653;47.052;15.410;2022-12-18T09:03:15;21.48;;;17.40;;
20988;SDS011;10653;47.052;15.410;2022-12-18T09:05:42;26.88;;;18.00;;
20988;SDS011;10653;47.052;15.410;2022-12-18T09:08:08;22.02;;;17.05;;
20988;SDS011;10653;47.052;15.410;2022-12-18T09:10:41;21.38;;;17.13;;
20988;SDS011;10653;47.052;15.410;2022-12-18T09:13:07;27.77;;;19.67;;
20988;SDS011;10653;47.052;15.410;2022-12-18T09:15:33;22.50;;;18.87;;
20988;SDS011;10653;47.052;15.410;2022-12-18T09:17:59;28.17;;;20.00;;
20988;SDS011;10653;47.052;15.410;2022-12-18T09:20:25;26.40;;;20.87;;
20988;SDS011;10653;47.052;15.410;2022-12-18T09:22:53;27.17;;;21.80;;
20988;SDS011;10653;47.052;15.410;2022-12-18T09:25:19;28.80;;;23.33;;
20988;SDS011;10653;47.052;15.410;2022-12-18T09:27:47;26.45;;;23.13;;
20988;SDS011;10653;47.052;15.410;2022-12-18T09:30:13;28.33;;;23.40;;
20988;SDS011;10653;47.052;15.410;2022-12-18T09:32:39;26.83;;;21.83;;
20988;SDS011;10653;47.052;15.410;2022-12-18T09:35:05;29.20;;;21.70;;
20988;SDS011;10653;47.052;15.410;2022-12-18T09:37:31;26.67;;;20.95;;
20988;SDS011;10653;47.052;15.410;2022-12-18T09:39:57;25.13;;;20.70;;
20988;SDS011;10653;47.052;15.410;2022-12-18T09:42:23;25.03;;;20.83;;
20988;SDS011;10653;47.052;15.410;2022-12-18T09:44:53;27.88;;;21.98;;
20988;SDS011;10653;47.052;15.410;2022-12-18T09:49:46;27.80;;;22.15;;
20988;SDS011;10653;47.052;15.410;2022-12-18T09:52:17;29.73;;;22.65;;
20988;SDS011;10653;47.052;15.410;2022-12-18T09:54:46;29.95;;;22.15;;
20988;SDS011;10653;47.052;15.410;2022-12-18T09:57:15;27.52;;;21.70;;
20988;SDS011;10653;47.052;15.410;2022-12-18T09:59:44;22.63;;;18.73;;
20988;SDS011;10653;47.052;15.410;2022-12-18T10:02:20;23.58;;;17.77;;
20988;SDS011;10653;47.052;15.410;2022-12-18T10:07:52;22.10;;;18.40;;
20988;SDS011;10653;47.052;15.410;2022-12-18T10:10:19;22.75;;;19.45;;
20988;SDS011;10653;47.052;15.410;2022-12-18T10:12:54;24.15;;;19.50;;
20988;SDS011;10653;47.052;15.410;2022-12-18T10:20:47;24.52;;;19.85;;
20988;SDS011;10653;47.052;15.410;2022-12-18T10:28:13;25.50;;;21.17;;
20988;SDS011;10653;47.052;15.410;2022-12-18T10:30:41;27.17;;;21.05;;
20988;SDS011;10653;47.052;15.410;2022-12-18T10:33:10;23.17;;;18.60;;
20988;SDS011;10653;47.052;15.410;2022-12-18T10:35:37;26.95;;;21.75;;
20988;SDS011;10653;47.052;15.410;2022-12-18T10:43:20;32.30;;;25.77;;
20988;SDS011;10653;47.052;15.410;2022-12-18T10:45:57;27.55;;;21.63;;
20988;SDS011;10653;47.052;15.410;2022-12-18T10:48:24;30.85;;;22.58;;
20988;SDS011;10653;47.052;15.410;2022-12-18T10:50:50;30.70;;;21.70;;
20988;SDS011;10653;47.052;15.410;2022-12-18T10:53:23;31.20;;;23.70;;
20988;SDS011;10653;47.052;15.410;2022-12-18T10:55:50;32.05;;;22.95;;
20988;SDS011;10653;47.052;15.410;2022-12-18T11:03:30;29.77;;;22.58;;
20988;SDS011;10653;47.052;15.410;2022-12-18T11:06:03;26.65;;;22.52;;
20988;SDS011;10653;47.052;15.410;2022-12-18T11:08:30;28.95;;;22.52;;
20988;SDS011;10653;47.052;15.410;2022-12-18T11:10:56;28.10;;;22.63;;
20988;SDS011;10653;47.052;15.410;2022-12-18T11:13:23;28.80;;;21.80;;
20988;SDS011;10653;47.052;15.410;2022-12-18T11:15:49;25.67;;;20.40;;
20988;SDS011;10653;47.052;15.410;2022-12-18T11:18:25;30.95;;;23.30;;
20988;SDS011;10653;47.052;15.410;2022-12-18T11:20:54;31.88;;;23.88;;
20988;SDS011;10653;47.052;15.410;2022-12-18T11:23:22;32.17;;;23.67;;
20988;SDS011;10653;47.052;15.410;2022-12-18T11:25:59;31.00;;;23.40;;
20988;SDS011;10653;47.052;15.410;2022-12-18T11:28:34;34.40;;;24.80;;
20988;SDS011;10653;47.052;15.410;2022-12-18T11:31:09;31.80;;;24.27;;
20988;SDS011;10653;47.052;15.410;2022-12-18T11:33:37;33.33;;;26.25;;
20988;SDS011;10653;47.052;15.410;2022-12-18T11:36:05;34.97;;;24.13;;
20988;SDS011;10653;47.052;15.410;2022-12-18T11:38:34;33.13;;;24.83;;
20988;SDS011;10653;47.052;15.410;2022-12-18T11:46:10;40.05;;;26.70;;
20988;SDS011;10653;47.052;15.410;2022-12-18T11:48:39;34.95;;;27.33;;
20988;SDS011;10653;47.052;15.410;2022-12-18T11:51:09;32.97;;;26.50;;
20988;SDS011;10653;47.052;15.410;2022-12-18T11:53:36;31.05;;;24.40;;
20988;SDS011;10653;47.052;15.410;2022-12-18T12:01:30;38.25;;;28.70;;
20988;SDS011;10653;47.052;15.410;2022-12-18T12:14:26;39.30;;;28.70;;
20988;SDS011;10653;47.052;15.410;2022-12-18T12:25:02;35.17;;;26.63;;
20988;SDS011;10653;47.052;15.410;2022-12-18T12:27:40;34.70;;;24.90;;
20988;SDS011;10653;47.052;15.410;2022-12-18T12:35:52;36.92;;;29.30;;
20988;SDS011;10653;47.052;15.410;2022-12-18T12:40:54;38.25;;;28.70;;
20988;SDS011;10653;47.052;15.410;2022-12-18T12:43:25;36.00;;;25.77;;
20988;SDS011;10653;47.052;15.410;2022-12-18T12:45:54;38.30;;;25.58;;
20988;SDS011;10653;47.052;15.410;2022-12-18T12:48:35;41.42;;;27.50;;
20988;SDS011;10653;47.052;15.410;2022-12-18T12:51:04;40.63;;;29.13;;
20988;SDS011;10653;47.052;15.410;2022-12-18T12:53:33;39.42;;;29.35;;
20988;SDS011;10653;47.052;15.410;2022-12-18T12:56:00;37.53;;;28.95;;
20988;SDS011;10653;47.052;15.410;2022-12-18T13:01:26;37.45;;;27.92;;
20988;SDS011;10653;47.052;15.410;2022-12-18T13:08:58;43.22;;;29.55;;
20988;SDS011;10653;47.052;15.410;2022-12-18T13:11:43;44.65;;;31.27;;
20988;SDS011;10653;47.052;15.410;2022-12-18T13:14:38;38.28;;;28.25;;
20988;SDS011;10653;47.052;15.410;2022-12-18T13:22:40;43.38;;;30.52;;
20988;SDS011;10653;47.052;15.410;2022-12-18T13:25:50;40.58;;;29.33;;
20988;SDS011;10653;47.052;15.410;2022-12-18T13:27:59;41.28;;;27.92;;
20988;SDS011;10653;47.052;15.410;2022-12-18T13:43:22;40.53;;;29.67;;
20988;SDS011;10653;47.052;15.410;2022-12-18T13:45:50;38.13;;;27.83;;
20988;SDS011;10653;47.052;15.410;2022-12-18T13:48:24;44.53;;;29.85;;
20988;SDS011;10653;47.052;15.410;2022-12-18T13:53:34;40.30;;;28.65;;
20988;SDS011;10653;47.052;15.410;2022-12-18T13:56:02;41.03;;;26.73;;
20988;SDS011;10653;47.052;15.410;2022-12-18T13:58:28;39.63;;;27.52;;
20988;SDS011;10653;47.052;15.410;2022-12-18T14:00:54;38.30;;;26.00;;
20988;SDS011;10653;47.052;15.410;2022-12-18T14:03:22;35.30;;;26.50;;
20988;SDS011;10653;47.052;15.410;2022-12-18T14:05:59;42.80;;;30.65;;
20988;SDS011;10653;47.052;15.410;2022-12-18T14:08:26;41.65;;;29.02;;
20988;SDS011;10653;47.052;15.410;2022-12-18T14:10:53;39.08;;;28.35;;
20988;SDS011;10653;47.052;15.410;2022-12-18T14:13:29;41.03;;;29.85;;
20988;SDS011;10653;47.052;15.410;2022-12-18T14:15:56;39.90;;;29.27;;
20988;SDS011;10653;47.052;15.410;2022-12-18T14:21:00;43.47;;;30.42;;
20988;SDS011;10653;47.052;15.410;2022-12-18T14:23:34;38.58;;;27.73;;
20988;SDS011;10653;47.052;15.410;2022-12-18T14:26:01;36.65;;;26.27;;
20988;SDS011;10653;47.052;15.410;2022-12-18T14:28:28;37.10;;;25.77;;
20988;SDS011;10653;47.052;15.410;2022-12-18T14:30:54;38.33;;;27.40;;
20988;SDS011;10653;47.052;15.410;2022-12-18T14:33:21;39.00;;;29.05;;
20988;SDS011;10653;47.052;15.410;2022-12-18T14:36:01;43.17;;;29.80;;
20988;SDS011;10653;47.052;15.410;2022-12-18T14:38:31;42.80;;;29.77;;
20988;SDS011;10653;47.052;15.410;2022-12-18T14:43:24;43.63;;;27.33;;
20988;SDS011;10653;47.052;15.410;2022-12-18T14:45:50;38.95;;;28.42;;
20988;SDS011;10653;47.052;15.410;2022-12-18T14:48:18;39.00;;;28.23;;
20988;SDS011;10653;47.052;15.410;2022-12-18T14:50:44;38.67;;;26.15;;
20988;SDS011;10653;47.052;15.410;2022-12-18T14:53:21;41.13;;;26.80;;
20988;SDS011;10653;47.052;15.410;2022-12-18T14:55:48;41.85;;;27.42;;
20988;SDS011;10653;47.052;15.410;2022-12-18T14:58:15;45.83;;;30.83;;
20988;SDS011;10653;47.052;15.410;2022-12-18T15:00:43;40.97;;;28.83;;
20988;SDS011;10653;47.052;15.410;2022-12-18T15:03:09;40.35;;;28.25;;
20988;SDS011;10653;47.052;15.410;2022-12-18T15:05:35;42.53;;;27.80;;
20988;SDS011;10653;47.052;15.410;2022-12-18T15:08:02;47.47;;;29.58;;
20988;SDS011;10653;47.052;15.410;2022-12-18T15:10:30;40.17;;;28.40;;
20988;SDS011;10653;47.052;15.410;2022-12-18T15:17:59;42.97;;;27.98;;
20988;SDS011;10653;47.052;15.410;2022-12-18T15:20:27;39.40;;;28.33;;
20988;SDS011;10653;47.052;15.410;2022-12-18T15:22:53;41.42;;;28.70;;
20988;SDS011;10653;47.052;15.410;2022-12-18T15:25:40;40.70;;;27.98;;
20988;SDS011;10653;47.052;15.410;2022-12-18T15:33:27;40.20;;;29.13;;
20988;SDS011;10653;47.052;15.410;2022-12-18T15:35:59;38.63;;;26.98;;
20988;SDS011;10653;47.052;15.410;2022-12-18T15:38:25;37.95;;;27.30;;
20988;SDS011;10653;47.052;15.410;2022-12-18T15:40:53;41.15;;;28.45;;
20988;SDS011;10653;47.052;15.410;2022-12-18T15:43:20;40.05;;;25.83;;
20988;SDS011;10653;47.052;15.410;2022-12-18T15:46:21;37.75;;;28.20;;
20988;SDS011;10653;47.052;15.410;2022-12-18T15:48:55;51.78;;;31.60;;
20988;SDS011;10653;47.052;15.410;2022-12-18T15:51:34;42.28;;;29.40;;
20988;SDS011;10653;47.052;15.410;2022-12-18T15:54:02;39.20;;;29.13;;
20988;SDS011;10653;47.052;15.410;2022-12-18T15:56:29;40.15;;;29.85;;
20988;SDS011;10653;47.052;15.410;2022-12-18T15:59:15;38.15;;;28.80;;
20988;SDS011;10653;47.052;15.410;2022-12-18T16:01:41;40.83;;;28.60;;
20988;SDS011;10653;47.052;15.410;2022-12-18T16:04:12;44.33;;;30.15;;
20988;SDS011;10653;47.052;15.410;2022-12-18T16:06:39;41.13;;;30.00;;
20988;SDS011;10653;47.052;15.410;2022-12-18T16:09:06;36.00;;;28.40;;
20988;SDS011;10653;47.052;15.410;2022-12-18T16:11:33;42.28;;;29.23;;
20988;SDS011;10653;47.052;15.410;2022-12-18T16:16:35;38.25;;;30.20;;
20988;SDS011;10653;47.052;15.410;2022-12-18T16:19:01;41.90;;;29.70;;
20988;SDS011;10653;47.052;15.410;2022-12-18T16:21:27;38.95;;;29.10;;
20988;SDS011;10653;47.052;15.410;2022-12-18T16:23:54;39.50;;;30.33;;
20988;SDS011;10653;47.052;15.410;2022-12-18T16:26:20;44.03;;;31.43;;
20988;SDS011;10653;47.052;15.410;2022-12-18T16:28:46;40.47;;;29.33;;
20988;SDS011;10653;47.052;15.410;2022-12-18T16:31:13;48.92;;;32.63;;